createdAt,value
2023-02-27T00:00:36.856Z,23.44
2023-02-27T00:01:15.488Z,23.45
2023-02-27T00:01:54.172Z,23.44
2023-02-27T00:02:33.153Z,23.43
2023-02-27T00:03:12.504Z,23.44
2023-02-27T00:03:51.386Z,23.46
2023-02-27T00:04:30.623Z,23.46
2023-02-27T00:05:08.606Z,23.46
2023-02-27T00:05:47.007Z,23.45
2023-02-27T00:06:26.468Z,23.46
2023-02-27T00:07:05.363Z,23.44
2023-02-27T00:07:43.863Z,23.44
2023-02-27T00:08:23.358Z,23.46
2023-02-27T00:09:02.175Z,23.47
2023-02-27T00:09:40.951Z,23.46
2023-02-27T00:10:19.699Z,23.46
2023-02-27T00:10:57.940Z,23.46
2023-02-27T00:11:37.132Z,23.41
2023-02-27T00:12:17.462Z,23.44
2023-02-27T00:12:56.146Z,23.46
2023-02-27T00:13:35.267Z,23.46
2023-02-27T00:14:14.570Z,23.46
2023-02-27T00:14:52.026Z,23.45
2023-02-27T00:15:31.332Z,23.47
2023-02-27T00:16:11.859Z,23.43
2023-02-27T00:16:50.009Z,23.44
2023-02-27T00:17:28.580Z,23.42
2023-02-27T00:18:07.942Z,23.40
2023-02-27T00:18:46.566Z,23.39
2023-02-27T00:19:25.666Z,23.39
2023-02-27T00:20:05.096Z,23.40
2023-02-27T00:20:43.725Z,23.39
2023-02-27T00:21:22.047Z,23.40
2023-02-27T00:22:01.557Z,23.38
2023-02-27T00:22:40.551Z,23.41
2023-02-27T00:23:19.479Z,23.40
2023-02-27T00:23:59.388Z,23.41
2023-02-27T00:24:38.596Z,23.42
2023-02-27T00:25:17.977Z,23.41
2023-02-27T00:25:56.671Z,23.43
2023-02-27T00:26:35.300Z,23.44
2023-02-27T00:27:14.722Z,23.42
2023-02-27T00:27:54.310Z,23.43
2023-02-27T00:28:33.627Z,23.42
2023-02-27T00:29:12.256Z,23.40
2023-02-27T00:29:52.507Z,23.39
2023-02-27T00:30:31.499Z,23.41
2023-02-27T00:31:10.541Z,23.41
2023-02-27T00:31:49.140Z,23.41
2023-02-27T00:32:28.778Z,23.40
2023-02-27T00:33:07.367Z,23.39
2023-02-27T00:33:46.311Z,23.43
2023-02-27T00:34:25.121Z,23.40
2023-02-27T00:35:04.694Z,23.39
2023-02-27T00:35:43.340Z,23.42
2023-02-27T00:36:21.430Z,23.41
2023-02-27T00:36:59.196Z,23.37
2023-02-27T00:37:37.277Z,23.38
2023-02-27T00:38:16.733Z,23.40
2023-02-27T00:38:55.524Z,23.42
2023-02-27T00:39:34.150Z,23.43
2023-02-27T00:40:12.636Z,23.37
2023-02-27T00:40:50.538Z,23.39
2023-02-27T00:41:29.357Z,23.42
2023-02-27T00:42:07.259Z,23.42
2023-02-27T00:42:45.856Z,23.42
2023-02-27T00:43:25.267Z,23.41
2023-02-27T00:44:03.302Z,23.43
2023-02-27T00:44:42.899Z,23.44
2023-02-27T00:45:21.387Z,23.38
2023-02-27T00:46:00.724Z,23.39
2023-02-27T00:46:39.477Z,23.40
2023-02-27T00:47:18.370Z,23.40
2023-02-27T00:47:57.262Z,23.40
2023-02-27T00:48:37.725Z,23.42
2023-02-27T00:49:15.370Z,23.41
2023-02-27T00:49:55.379Z,23.43
2023-02-27T00:50:35.934Z,23.42
2023-02-27T00:51:15.819Z,23.40
2023-02-27T00:51:55.760Z,23.42
2023-02-27T00:52:35.162Z,23.41
2023-02-27T00:53:13.862Z,23.42
2023-02-27T00:53:52.831Z,23.40
2023-02-27T00:54:30.959Z,23.38
2023-02-27T00:55:08.857Z,23.35
2023-02-27T00:55:47.984Z,23.39
2023-02-27T00:56:26.968Z,23.40
2023-02-27T00:57:06.282Z,23.38
2023-02-27T00:57:46.328Z,23.37
2023-02-27T00:58:25.318Z,23.38
2023-02-27T00:59:04.413Z,23.39
2023-02-27T00:59:42.380Z,23.39
2023-02-27T01:00:21.099Z,23.36
2023-02-27T01:00:59.824Z,23.37
2023-02-27T01:01:39.229Z,23.39
2023-02-27T01:02:17.893Z,23.39
2023-02-27T01:02:57.734Z,23.41
2023-02-27T01:03:36.245Z,23.38
2023-02-27T01:04:15.934Z,23.40
2023-02-27T01:04:53.411Z,23.41
2023-02-27T01:05:31.745Z,23.40
2023-02-27T01:06:09.620Z,23.38
2023-02-27T01:06:48.604Z,23.40
2023-02-27T01:07:28.149Z,23.37
2023-02-27T01:08:07.252Z,23.40
2023-02-27T01:08:46.578Z,23.39
2023-02-27T01:09:25.228Z,23.40
2023-02-27T01:10:04.216Z,23.38
2023-02-27T01:10:43.092Z,23.38
2023-02-27T01:11:23.030Z,23.38
2023-02-27T01:12:01.556Z,23.40
2023-02-27T01:12:41.319Z,23.41
2023-02-27T01:13:20.151Z,23.38
2023-02-27T01:14:00.395Z,23.35
2023-02-27T01:14:39.063Z,23.35
2023-02-27T01:15:17.675Z,23.35
2023-02-27T01:15:56.467Z,23.35
2023-02-27T01:16:35.648Z,23.36
2023-02-27T01:17:14.818Z,23.39
2023-02-27T01:17:54.110Z,23.37
2023-02-27T01:18:33.524Z,23.36
2023-02-27T01:19:12.944Z,23.36
2023-02-27T01:19:52.433Z,23.37
2023-02-27T01:20:31.336Z,23.39
2023-02-27T01:21:10.412Z,23.37
2023-02-27T01:21:47.640Z,23.36
2023-02-27T01:22:26.435Z,23.38
2023-02-27T01:23:05.033Z,23.37
2023-02-27T01:23:43.595Z,23.33
2023-02-27T01:24:22.113Z,23.34
2023-02-27T01:25:01.591Z,23.34
2023-02-27T01:25:40.785Z,23.36
2023-02-27T01:26:19.487Z,23.36
2023-02-27T01:26:58.477Z,23.35
2023-02-27T01:27:38.291Z,23.30
2023-02-27T01:28:18.428Z,23.31
2023-02-27T01:28:57.954Z,23.31
2023-02-27T01:29:38.536Z,23.30
2023-02-27T01:30:17.862Z,23.35
2023-02-27T01:30:56.661Z,23.35
2023-02-27T01:31:35.153Z,23.37
2023-02-27T01:32:15.408Z,23.32
2023-02-27T01:32:54.844Z,23.33
2023-02-27T01:33:33.905Z,23.36
2023-02-27T01:34:12.792Z,23.38
2023-02-27T01:34:51.936Z,23.38
2023-02-27T01:35:31.449Z,23.36
2023-02-27T01:36:10.470Z,23.37
2023-02-27T01:36:49.043Z,23.37
2023-02-27T01:37:28.389Z,23.35
2023-02-27T01:38:08.276Z,23.37
2023-02-27T01:38:47.661Z,23.39
2023-02-27T01:39:26.935Z,23.37
2023-02-27T01:40:06.412Z,23.36
2023-02-27T01:40:45.760Z,23.38
2023-02-27T01:41:24.661Z,23.36
2023-02-27T01:42:02.705Z,23.37
2023-02-27T01:42:42.734Z,23.33
2023-02-27T01:43:21.805Z,23.32
2023-02-27T01:44:01.377Z,23.36
2023-02-27T01:44:39.608Z,23.37
2023-02-27T01:45:18.319Z,23.36
2023-02-27T01:45:58.370Z,23.37
2023-02-27T01:46:37.140Z,23.36
2023-02-27T01:47:15.943Z,23.38
2023-02-27T01:47:55.039Z,23.39
2023-02-27T01:48:33.934Z,23.40
2023-02-27T01:49:12.905Z,23.39
2023-02-27T01:49:51.385Z,23.39
2023-02-27T01:50:30.158Z,23.39
2023-02-27T01:51:09.330Z,23.39
2023-02-27T01:51:48.484Z,23.35
2023-02-27T01:52:27.738Z,23.37
2023-02-27T01:53:07.215Z,23.35
2023-02-27T01:53:46.581Z,23.37
2023-02-27T01:54:26.519Z,23.35
2023-02-27T01:55:05.609Z,23.35
2023-02-27T01:55:45.364Z,23.36
2023-02-27T01:56:25.366Z,23.39
2023-02-27T01:57:03.860Z,23.37
2023-02-27T01:57:43.734Z,23.33
2023-02-27T01:58:23.078Z,23.36
2023-02-27T01:59:01.757Z,23.35
2023-02-27T01:59:39.912Z,23.35
2023-02-27T02:00:18.458Z,23.34
2023-02-27T02:00:57.194Z,23.34
2023-02-27T02:01:36.485Z,23.32
2023-02-27T02:02:14.825Z,23.33
2023-02-27T02:02:54.010Z,23.33
2023-02-27T02:03:32.569Z,23.34
2023-02-27T02:04:11.756Z,23.33
2023-02-27T02:04:49.727Z,23.35
2023-02-27T02:05:28.191Z,23.33
2023-02-27T02:06:06.581Z,23.32
2023-02-27T02:06:46.842Z,23.37
2023-02-27T02:07:27.109Z,23.32
2023-02-27T02:08:06.566Z,23.34
2023-02-27T02:08:45.984Z,23.36
2023-02-27T02:09:25.022Z,23.36
2023-02-27T02:10:03.033Z,23.37
2023-02-27T02:10:41.154Z,23.37
2023-02-27T02:11:20.499Z,23.33
2023-02-27T02:11:59.770Z,23.33
2023-02-27T02:12:38.540Z,23.34
2023-02-27T02:13:18.779Z,23.32
2023-02-27T02:13:57.897Z,23.32
2023-02-27T02:14:37.633Z,23.32
2023-02-27T02:15:16.369Z,23.32
2023-02-27T02:15:54.859Z,23.34
2023-02-27T02:16:33.632Z,23.29
2023-02-27T02:17:12.856Z,23.32
2023-02-27T02:17:51.364Z,23.28
2023-02-27T02:18:30.185Z,23.28
2023-02-27T02:19:08.821Z,23.31
2023-02-27T02:19:47.948Z,23.33
2023-02-27T02:20:26.430Z,23.34
2023-02-27T02:21:06.681Z,23.34
2023-02-27T02:21:45.142Z,23.35
2023-02-27T02:22:24.298Z,23.35
2023-02-27T02:23:03.634Z,23.33
2023-02-27T02:23:43.037Z,23.34
2023-02-27T02:24:22.311Z,23.29
2023-02-27T02:25:01.795Z,23.32
2023-02-27T02:25:40.711Z,23.32
2023-02-27T02:26:19.287Z,23.33
2023-02-27T02:26:57.903Z,23.29
2023-02-27T02:27:36.805Z,23.30
2023-02-27T02:28:15.328Z,23.34
2023-02-27T02:28:54.044Z,23.36
2023-02-27T02:29:32.499Z,23.39
2023-02-27T02:30:12.279Z,23.31
2023-02-27T02:30:51.978Z,23.33
2023-02-27T02:31:30.966Z,23.36
2023-02-27T02:32:10.568Z,23.36
2023-02-27T02:32:49.818Z,23.32
2023-02-27T02:33:29.478Z,23.31
2023-02-27T02:34:08.543Z,23.26
2023-02-27T02:34:46.796Z,23.27
2023-02-27T02:35:24.933Z,23.27
2023-02-27T02:36:04.279Z,23.25
2023-02-27T02:36:43.060Z,23.29
2023-02-27T02:37:22.304Z,23.33
2023-02-27T02:38:00.943Z,23.32
2023-02-27T02:38:40.039Z,23.32
2023-02-27T02:39:19.227Z,23.31
2023-02-27T02:39:59.050Z,23.32
2023-02-27T02:40:37.514Z,23.29
2023-02-27T02:41:17.048Z,23.27
2023-02-27T02:41:56.390Z,23.28
2023-02-27T02:42:35.871Z,23.32
2023-02-27T02:43:15.605Z,23.33
2023-02-27T02:43:55.316Z,23.33
2023-02-27T02:44:34.681Z,23.36
2023-02-27T02:45:13.456Z,23.31
2023-02-27T02:45:52.088Z,23.31
2023-02-27T02:46:30.842Z,23.31
2023-02-27T02:47:10.565Z,23.36
2023-02-27T02:47:52.604Z,23.33
2023-02-27T02:48:32.051Z,23.32
2023-02-27T02:49:11.168Z,23.33
2023-02-27T02:49:52.946Z,23.29
2023-02-27T02:50:30.726Z,23.28
2023-02-27T02:51:09.451Z,23.32
2023-02-27T02:51:49.265Z,23.34
2023-02-27T02:52:27.183Z,23.35
2023-02-27T02:53:06.810Z,23.36
2023-02-27T02:53:45.377Z,23.36
2023-02-27T02:54:24.253Z,23.39
2023-02-27T02:55:02.574Z,23.38
2023-02-27T02:55:40.790Z,23.37
2023-02-27T02:56:19.490Z,23.37
2023-02-27T02:56:58.115Z,23.38
2023-02-27T02:57:36.952Z,23.36
2023-02-27T02:58:15.229Z,23.38
2023-02-27T02:58:54.197Z,23.36
2023-02-27T02:59:32.319Z,23.37
2023-02-27T03:00:10.724Z,23.38
2023-02-27T03:00:49.620Z,23.39
2023-02-27T03:01:27.564Z,23.39
2023-02-27T03:02:07.217Z,23.36
2023-02-27T03:02:46.328Z,23.36
2023-02-27T03:03:25.877Z,23.36
2023-02-27T03:04:04.757Z,23.35
2023-02-27T03:04:43.988Z,23.34
2023-02-27T03:05:21.873Z,23.34
2023-02-27T03:06:00.609Z,23.38
2023-02-27T03:06:39.727Z,23.35
2023-02-27T03:07:19.091Z,23.37
2023-02-27T03:07:58.308Z,23.34
2023-02-27T03:08:37.607Z,23.34
2023-02-27T03:09:16.812Z,23.34
2023-02-27T03:09:56.394Z,23.36
2023-02-27T03:10:34.436Z,23.35
2023-02-27T03:11:13.217Z,23.34
2023-02-27T03:11:51.580Z,23.36
2023-02-27T03:12:30.744Z,23.37
2023-02-27T03:13:09.870Z,23.39
2023-02-27T03:13:49.298Z,23.37
2023-02-27T03:14:27.351Z,23.32
2023-02-27T03:15:08.156Z,23.30
2023-02-27T03:15:46.755Z,23.33
2023-02-27T03:16:24.923Z,23.29
2023-02-27T03:17:04.371Z,23.30
2023-02-27T03:17:42.781Z,23.35
2023-02-27T03:18:21.176Z,23.35
2023-02-27T03:19:00.916Z,23.32
2023-02-27T03:19:39.873Z,23.31
2023-02-27T03:20:18.650Z,23.29
2023-02-27T03:20:57.255Z,23.34
2023-02-27T03:21:35.699Z,23.36
2023-02-27T03:22:15.528Z,23.40
2023-02-27T03:22:54.102Z,23.39
2023-02-27T03:23:33.922Z,23.35
2023-02-27T03:24:12.363Z,23.37
2023-02-27T03:24:51.467Z,23.39
2023-02-27T03:25:29.900Z,23.36
2023-02-27T03:26:08.487Z,23.35
2023-02-27T03:26:47.289Z,23.37
2023-02-27T03:27:26.013Z,23.35
2023-02-27T03:28:04.618Z,23.35
2023-02-27T03:28:43.140Z,23.38
2023-02-27T03:29:21.820Z,23.37
2023-02-27T03:30:00.940Z,23.36
2023-02-27T03:30:39.247Z,23.36
2023-02-27T03:31:18.056Z,23.38
2023-02-27T03:31:56.618Z,23.40
2023-02-27T03:32:35.113Z,23.38
2023-02-27T03:33:15.030Z,23.36
2023-02-27T03:33:52.909Z,23.35
2023-02-27T03:34:31.367Z,23.30
2023-02-27T03:35:10.611Z,23.29
2023-02-27T03:35:49.432Z,23.30
2023-02-27T03:36:28.022Z,23.30
2023-02-27T03:37:06.678Z,23.33
2023-02-27T03:37:46.373Z,23.30
2023-02-27T03:38:25.466Z,23.30
2023-02-27T03:39:05.023Z,23.31
2023-02-27T03:39:43.883Z,23.26
2023-02-27T03:40:22.837Z,23.26
2023-02-27T03:41:01.155Z,23.27
2023-02-27T03:41:39.724Z,23.28
2023-02-27T03:42:18.177Z,23.29
2023-02-27T03:42:57.470Z,23.31
2023-02-27T03:43:36.053Z,23.29
2023-02-27T03:44:15.070Z,23.28
2023-02-27T03:44:54.434Z,23.28
2023-02-27T03:45:33.613Z,23.28
2023-02-27T03:46:12.953Z,23.25
2023-02-27T03:46:52.755Z,23.29
2023-02-27T03:47:31.614Z,23.32
2023-02-27T03:48:10.987Z,23.30
2023-02-27T03:48:49.653Z,23.31
2023-02-27T03:49:29.497Z,23.32
2023-02-27T03:50:08.340Z,23.29
2023-02-27T03:50:46.333Z,23.26
2023-02-27T03:51:25.123Z,23.26
2023-02-27T03:52:03.701Z,23.25
2023-02-27T03:52:43.168Z,23.26
2023-02-27T03:53:22.802Z,23.24
2023-02-27T03:54:02.885Z,23.25
2023-02-27T03:54:41.320Z,23.30
2023-02-27T03:55:20.507Z,23.25
2023-02-27T03:55:59.072Z,23.27
2023-02-27T03:56:37.374Z,23.29
2023-02-27T03:57:16.210Z,23.28
2023-02-27T03:57:56.287Z,23.29
2023-02-27T03:58:34.586Z,23.25
2023-02-27T03:59:13.419Z,23.26
2023-02-27T03:59:52.030Z,23.24
2023-02-27T04:00:31.024Z,23.27
2023-02-27T04:01:09.324Z,23.28
2023-02-27T04:01:47.367Z,23.27
2023-02-27T04:02:25.333Z,23.26
2023-02-27T04:03:04.953Z,23.24
2023-02-27T04:03:43.246Z,23.23
2023-02-27T04:04:22.840Z,23.26
2023-02-27T04:05:00.707Z,23.25
2023-02-27T04:05:40.346Z,23.26
2023-02-27T04:06:18.899Z,23.26
2023-02-27T04:06:58.582Z,23.25
2023-02-27T04:07:37.632Z,23.27
2023-02-27T04:08:17.199Z,23.28
2023-02-27T04:08:56.202Z,23.25
2023-02-27T04:09:35.791Z,23.24
2023-02-27T04:10:14.812Z,23.28
2023-02-27T04:10:53.731Z,23.28
2023-02-27T04:11:31.971Z,23.27
2023-02-27T04:12:10.476Z,23.26
2023-02-27T04:12:49.773Z,23.27
2023-02-27T04:13:28.987Z,23.28
2023-02-27T04:14:08.445Z,23.29
2023-02-27T04:14:47.720Z,23.29
2023-02-27T04:15:26.574Z,23.31
2023-02-27T04:16:06.139Z,23.31
2023-02-27T04:16:45.415Z,23.29
2023-02-27T04:17:23.898Z,23.28
2023-02-27T04:18:03.501Z,23.26
2023-02-27T04:18:42.826Z,23.26
2023-02-27T04:19:22.062Z,23.28
2023-02-27T04:20:02.291Z,23.27
2023-02-27T04:20:41.660Z,23.24
2023-02-27T04:21:20.884Z,23.27
2023-02-27T04:21:59.550Z,23.22
2023-02-27T04:22:38.519Z,23.19
2023-02-27T04:23:18.249Z,23.22
2023-02-27T04:23:57.479Z,23.20
2023-02-27T04:24:36.858Z,23.21
2023-02-27T04:25:15.922Z,23.24
2023-02-27T04:25:54.345Z,23.26
2023-02-27T04:26:32.756Z,23.29
2023-02-27T04:27:11.181Z,23.28
2023-02-27T04:27:49.308Z,23.29
2023-02-27T04:28:28.000Z,23.26
2023-02-27T04:29:08.322Z,23.28
2023-02-27T04:29:47.598Z,23.28
2023-02-27T04:30:26.246Z,23.27
2023-02-27T04:31:04.994Z,23.26
2023-02-27T04:31:43.024Z,23.24
2023-02-27T04:32:20.946Z,23.27
2023-02-27T04:32:59.892Z,23.28
2023-02-27T04:33:38.680Z,23.29
2023-02-27T04:34:18.125Z,23.27
2023-02-27T04:34:56.655Z,23.31
2023-02-27T04:35:36.184Z,23.31
2023-02-27T04:36:15.442Z,23.34
2023-02-27T04:36:54.476Z,23.32
2023-02-27T04:37:33.490Z,23.33
2023-02-27T04:38:13.253Z,23.30
2023-02-27T04:38:52.429Z,23.30
2023-02-27T04:39:31.510Z,23.30
2023-02-27T04:40:10.788Z,23.31
2023-02-27T04:40:48.979Z,23.31
2023-02-27T04:41:28.015Z,23.31
2023-02-27T04:42:06.068Z,23.30
2023-02-27T04:42:44.579Z,23.31
2023-02-27T04:43:24.220Z,23.30
2023-02-27T04:44:03.065Z,23.28
2023-02-27T04:44:40.891Z,23.29
2023-02-27T04:45:20.154Z,23.30
2023-02-27T04:46:00.109Z,23.26
2023-02-27T04:46:39.038Z,23.28
2023-02-27T04:47:17.504Z,23.30
2023-02-27T04:47:55.948Z,23.28
2023-02-27T04:48:35.722Z,23.28
2023-02-27T04:49:14.311Z,23.29
2023-02-27T04:49:53.753Z,23.31
2023-02-27T04:50:32.259Z,23.33
2023-02-27T04:51:11.822Z,23.30
2023-02-27T04:51:51.062Z,23.29
2023-02-27T04:52:29.234Z,23.30
2023-02-27T04:53:07.042Z,23.30
2023-02-27T04:53:46.453Z,23.30
2023-02-27T04:54:25.654Z,23.29
2023-02-27T04:55:04.890Z,23.29
2023-02-27T04:55:44.355Z,23.27
2023-02-27T04:56:23.561Z,23.27
2023-02-27T04:57:02.708Z,23.26
2023-02-27T04:57:40.793Z,23.26
2023-02-27T04:58:19.353Z,23.24
2023-02-27T04:58:58.216Z,23.24
2023-02-27T04:59:37.396Z,23.25
2023-02-27T05:00:14.716Z,23.24
2023-02-27T05:00:54.234Z,23.26
2023-02-27T05:01:32.934Z,23.27
2023-02-27T05:02:12.177Z,23.26
2023-02-27T05:02:50.236Z,23.27
2023-02-27T05:03:28.707Z,23.29
2023-02-27T05:04:08.418Z,23.31
2023-02-27T05:04:48.908Z,23.25
2023-02-27T05:05:28.076Z,23.25
2023-02-27T05:06:07.644Z,23.30
2023-02-27T05:06:46.133Z,23.29
2023-02-27T05:07:25.921Z,23.33
2023-02-27T05:08:03.888Z,23.32
2023-02-27T05:08:42.511Z,23.32
2023-02-27T05:09:21.227Z,23.32
2023-02-27T05:10:00.459Z,23.31
2023-02-27T05:10:39.124Z,23.29
2023-02-27T05:11:18.818Z,23.26
2023-02-27T05:11:57.875Z,23.26
2023-02-27T05:12:36.310Z,23.27
2023-02-27T05:13:15.718Z,23.29
2023-02-27T05:13:54.296Z,23.28
2023-02-27T05:14:33.586Z,23.28
2023-02-27T05:15:11.999Z,23.32
2023-02-27T05:15:50.866Z,23.31
2023-02-27T05:16:30.209Z,23.31
2023-02-27T05:17:08.785Z,23.28
2023-02-27T05:17:48.186Z,23.30
2023-02-27T05:18:26.502Z,23.29
2023-02-27T05:19:05.289Z,23.30
2023-02-27T05:19:44.362Z,23.29
2023-02-27T05:20:23.730Z,23.28
2023-02-27T05:21:02.071Z,23.29
2023-02-27T05:21:41.903Z,23.30
2023-02-27T05:22:21.034Z,23.28
2023-02-27T05:22:59.968Z,23.26
2023-02-27T05:23:37.919Z,23.25
2023-02-27T05:24:16.570Z,23.27
2023-02-27T05:24:55.166Z,23.28
2023-02-27T05:25:34.324Z,23.28
2023-02-27T05:26:12.769Z,23.29
2023-02-27T05:26:51.953Z,23.27
2023-02-27T05:27:31.111Z,23.28
2023-02-27T05:28:10.588Z,23.26
2023-02-27T05:28:49.308Z,23.29
2023-02-27T05:29:28.335Z,23.31
2023-02-27T05:30:08.537Z,23.32
2023-02-27T05:30:48.024Z,23.31
2023-02-27T05:31:26.370Z,23.32
2023-02-27T05:32:05.236Z,23.31
2023-02-27T05:32:43.832Z,23.31
2023-02-27T05:33:23.090Z,23.29
2023-02-27T05:34:00.985Z,23.29
2023-02-27T05:34:39.354Z,23.28
2023-02-27T05:35:17.403Z,23.30
2023-02-27T05:35:56.758Z,23.27
2023-02-27T05:36:36.116Z,23.25
2023-02-27T05:37:15.392Z,23.26
2023-02-27T05:37:54.126Z,23.28
2023-02-27T05:38:33.081Z,23.27
2023-02-27T05:39:11.301Z,23.28
2023-02-27T05:39:49.800Z,23.26
2023-02-27T05:40:29.122Z,23.25
2023-02-27T05:41:09.222Z,23.23
2023-02-27T05:41:46.485Z,23.23
2023-02-27T05:42:25.455Z,23.24
2023-02-27T05:43:05.835Z,23.24
2023-02-27T05:43:44.167Z,23.25
2023-02-27T05:44:22.486Z,23.25
2023-02-27T05:45:01.008Z,23.25
2023-02-27T05:45:39.533Z,23.27
2023-02-27T05:46:17.567Z,23.28
2023-02-27T05:46:57.610Z,23.24
2023-02-27T05:47:36.925Z,23.28
2023-02-27T05:48:18.420Z,23.26
2023-02-27T05:48:56.887Z,23.28
2023-02-27T05:49:35.456Z,23.25
2023-02-27T05:50:14.088Z,23.28
2023-02-27T05:50:53.254Z,23.25
2023-02-27T05:51:32.387Z,23.26
2023-02-27T05:52:12.379Z,23.28
2023-02-27T05:52:52.118Z,23.29
2023-02-27T05:53:32.231Z,23.31
2023-02-27T05:54:12.548Z,23.32
2023-02-27T05:54:51.319Z,23.30
2023-02-27T05:55:30.248Z,23.26
2023-02-27T05:56:09.950Z,23.26
2023-02-27T05:56:48.303Z,23.26
2023-02-27T05:57:26.508Z,23.27
2023-02-27T05:58:05.805Z,23.28
2023-02-27T05:58:44.543Z,23.24
2023-02-27T05:59:21.696Z,23.27
2023-02-27T06:00:00.134Z,23.26
2023-02-27T06:00:39.028Z,23.23
2023-02-27T06:01:18.423Z,23.24
2023-02-27T06:01:58.233Z,23.23
2023-02-27T06:02:37.084Z,23.25
2023-02-27T06:03:15.536Z,23.25
2023-02-27T06:03:54.082Z,23.23
2023-02-27T06:04:33.241Z,23.25
2023-02-27T06:05:11.804Z,23.25
2023-02-27T06:05:51.032Z,23.25
2023-02-27T06:06:30.019Z,23.25
2023-02-27T06:07:08.965Z,23.27
2023-02-27T06:07:47.718Z,23.22
2023-02-27T06:08:27.540Z,23.23
2023-02-27T06:09:06.524Z,23.27
2023-02-27T06:09:44.805Z,23.30
2023-02-27T06:10:23.305Z,23.31
2023-02-27T06:11:03.098Z,23.30
2023-02-27T06:11:42.168Z,23.28
2023-02-27T06:12:20.880Z,23.27
2023-02-27T06:12:59.730Z,23.27
2023-02-27T06:13:41.715Z,23.29
2023-02-27T06:14:19.536Z,23.26
2023-02-27T06:14:59.026Z,23.27
2023-02-27T06:15:37.386Z,23.28
2023-02-27T06:16:16.712Z,23.27
2023-02-27T06:16:56.216Z,23.28
2023-02-27T06:17:36.182Z,23.26
2023-02-27T06:18:15.306Z,23.26
2023-02-27T06:18:54.527Z,23.27
2023-02-27T06:19:32.547Z,23.29
2023-02-27T06:20:11.286Z,23.30
2023-02-27T06:20:50.161Z,23.28
2023-02-27T06:21:29.709Z,23.30
2023-02-27T06:22:08.170Z,23.32
2023-02-27T06:22:51.496Z,23.31
2023-02-27T06:23:31.340Z,23.28
2023-02-27T06:24:08.932Z,23.28
2023-02-27T06:24:46.605Z,23.27
2023-02-27T06:25:25.919Z,23.25
2023-02-27T06:26:04.665Z,23.24
2023-02-27T06:26:43.042Z,23.26
2023-02-27T06:27:22.932Z,23.26
2023-02-27T06:28:00.982Z,23.29
2023-02-27T06:28:40.537Z,23.30
2023-02-27T06:29:18.288Z,23.31
2023-02-27T06:29:56.894Z,23.28
2023-02-27T06:30:35.280Z,23.25
2023-02-27T06:31:14.855Z,23.24
2023-02-27T06:31:53.778Z,23.24
2023-02-27T06:32:33.650Z,23.25
2023-02-27T06:33:13.102Z,23.29
2023-02-27T06:33:53.088Z,23.30
2023-02-27T06:34:31.862Z,23.29
2023-02-27T06:35:10.447Z,23.27
2023-02-27T06:35:49.874Z,23.29
2023-02-27T06:36:29.481Z,23.28
2023-02-27T06:37:08.493Z,23.26
2023-02-27T06:37:47.652Z,23.30
2023-02-27T06:38:27.096Z,23.29
2023-02-27T06:39:06.200Z,23.27
2023-02-27T06:39:45.227Z,23.28
2023-02-27T06:40:23.644Z,23.26
2023-02-27T06:41:02.807Z,23.26
2023-02-27T06:41:41.980Z,23.27
2023-02-27T06:42:21.112Z,23.28
2023-02-27T06:43:00.630Z,23.29
2023-02-27T06:43:40.174Z,23.32
2023-02-27T06:44:19.940Z,23.31
2023-02-27T06:44:58.294Z,23.32
2023-02-27T06:45:32.734Z,23.33
2023-02-27T06:46:12.994Z,23.30
2023-02-27T06:46:51.285Z,23.31
2023-02-27T06:47:31.222Z,23.26
2023-02-27T06:48:09.626Z,23.28
2023-02-27T06:48:48.798Z,23.24
2023-02-27T06:49:27.779Z,23.26
2023-02-27T06:50:06.110Z,23.25
2023-02-27T06:50:44.668Z,23.25
2023-02-27T06:51:23.912Z,23.26
2023-02-27T06:52:03.060Z,23.26
2023-02-27T06:52:42.622Z,23.27
2023-02-27T06:53:21.970Z,23.25
2023-02-27T06:54:01.563Z,23.25
2023-02-27T06:54:40.789Z,23.27
2023-02-27T06:55:19.502Z,23.26
2023-02-27T06:55:58.317Z,23.21
2023-02-27T06:56:37.714Z,23.23
2023-02-27T06:57:17.651Z,23.23
2023-02-27T06:57:56.696Z,23.25
2023-02-27T06:58:36.017Z,23.25
2023-02-27T06:59:15.127Z,23.25
2023-02-27T06:59:55.198Z,23.21
2023-02-27T07:00:33.753Z,23.24
2023-02-27T07:01:12.581Z,23.24
2023-02-27T07:01:50.891Z,23.26
2023-02-27T07:02:30.228Z,23.22
2023-02-27T07:03:09.224Z,23.22
2023-02-27T07:03:48.038Z,23.25
2023-02-27T07:04:27.618Z,23.24
2023-02-27T07:05:08.086Z,23.25
2023-02-27T07:05:45.418Z,23.21
2023-02-27T07:07:32.058Z,23.21
2023-02-27T07:07:35.932Z,23.26
2023-02-27T07:08:15.147Z,23.26
2023-02-27T07:09:02.196Z,23.23
2023-02-27T07:09:43.959Z,23.19
2023-02-27T07:10:23.652Z,23.21
2023-02-27T07:11:02.462Z,23.23
2023-02-27T07:11:41.073Z,23.22
2023-02-27T07:12:20.439Z,23.25
2023-02-27T07:12:59.580Z,23.24
2023-02-27T07:13:39.007Z,23.23
2023-02-27T07:14:17.723Z,23.20
2023-02-27T07:14:57.261Z,23.23
2023-02-27T07:15:36.556Z,23.24
2023-02-27T07:16:15.368Z,23.22
2023-02-27T07:16:53.796Z,23.25
2023-02-27T07:17:32.398Z,23.25
2023-02-27T07:18:11.383Z,23.22
2023-02-27T07:18:49.644Z,23.24
2023-02-27T07:19:29.004Z,23.25
2023-02-27T07:20:07.031Z,23.28
2023-02-27T07:20:46.138Z,23.27
2023-02-27T07:21:24.321Z,23.23
2023-02-27T07:22:03.016Z,23.25
2023-02-27T07:22:41.964Z,23.24
2023-02-27T07:23:20.866Z,23.24
2023-02-27T07:23:59.840Z,23.25
2023-02-27T07:24:38.777Z,23.24
2023-02-27T07:25:16.946Z,23.26
2023-02-27T07:25:55.516Z,23.24
2023-02-27T07:26:33.182Z,23.25
2023-02-27T07:27:10.842Z,23.25
2023-02-27T07:27:48.972Z,23.23
2023-02-27T07:28:27.428Z,23.24
2023-02-27T07:29:06.326Z,23.24
2023-02-27T07:29:44.803Z,23.27
2023-02-27T07:30:23.558Z,23.28
2023-02-27T07:30:59.654Z,23.26
2023-02-27T07:31:33.610Z,23.27
2023-02-27T07:32:10.830Z,23.25
2023-02-27T07:32:48.250Z,23.23
2023-02-27T07:33:26.089Z,23.22
2023-02-27T07:34:05.200Z,23.23
2023-02-27T07:34:43.797Z,23.23
2023-02-27T07:35:22.800Z,23.23
2023-02-27T07:36:00.852Z,23.22
2023-02-27T07:36:40.175Z,23.22
2023-02-27T07:37:18.359Z,23.24
2023-02-27T07:37:56.862Z,23.25
2023-02-27T07:38:35.810Z,23.26
2023-02-27T07:39:15.197Z,23.24
2023-02-27T07:39:54.629Z,23.23
2023-02-27T07:40:33.688Z,23.22
2023-02-27T07:41:29.272Z,23.19
2023-02-27T07:42:07.644Z,23.21
2023-02-27T07:42:46.602Z,23.20
2023-02-27T07:43:25.332Z,23.21
2023-02-27T07:44:05.223Z,23.20
2023-02-27T07:44:45.274Z,23.20
2023-02-27T07:45:24.489Z,23.22
2023-02-27T07:46:04.273Z,23.21
2023-02-27T07:46:44.717Z,23.20
2023-02-27T07:47:23.571Z,23.22
2023-02-27T07:48:02.502Z,23.24
2023-02-27T07:48:40.918Z,23.26
2023-02-27T07:49:20.419Z,23.24
2023-02-27T07:49:58.887Z,23.22
2023-02-27T07:50:38.111Z,23.21
2023-02-27T07:51:16.534Z,23.23
2023-02-27T07:51:56.427Z,23.24
2023-02-27T07:52:35.645Z,23.22
2023-02-27T07:53:13.614Z,23.23
2023-02-27T07:53:51.533Z,23.22
2023-02-27T07:54:32.695Z,23.22
2023-02-27T07:55:09.615Z,23.22
2023-02-27T07:55:48.272Z,23.21
2023-02-27T07:56:27.534Z,23.24
2023-02-27T07:57:06.001Z,23.25
2023-02-27T07:57:44.618Z,23.23
2023-02-27T07:58:24.071Z,23.24
2023-02-27T07:59:03.582Z,23.22
2023-02-27T07:59:43.828Z,23.23
2023-02-27T08:00:21.749Z,23.22
2023-02-27T08:01:00.634Z,23.25
2023-02-27T08:01:39.615Z,23.22
2023-02-27T08:02:18.907Z,23.23
2023-02-27T08:02:57.327Z,23.22
2023-02-27T08:03:37.343Z,23.24
2023-02-27T08:04:16.611Z,23.25
2023-02-27T08:04:54.763Z,23.24
2023-02-27T08:05:32.695Z,23.23
2023-02-27T08:06:11.956Z,23.23
2023-02-27T08:06:53.270Z,23.24
2023-02-27T08:07:31.620Z,23.23
2023-02-27T08:08:10.373Z,23.23
2023-02-27T08:08:49.133Z,23.21
2023-02-27T08:09:29.283Z,23.20
2023-02-27T08:10:07.527Z,23.19
2023-02-27T08:10:46.092Z,23.19
2023-02-27T08:11:24.911Z,23.21
2023-02-27T08:12:04.076Z,23.22
2023-02-27T08:12:42.785Z,23.21
2023-02-27T08:13:42.465Z,23.22
2023-02-27T08:14:18.649Z,23.25
2023-02-27T08:14:58.254Z,23.25
2023-02-27T08:15:36.394Z,23.21
2023-02-27T08:16:15.202Z,23.23
2023-02-27T08:16:55.235Z,23.24
2023-02-27T08:17:34.294Z,23.22
2023-02-27T08:18:13.195Z,23.21
2023-02-27T08:18:51.837Z,23.21
2023-02-27T08:19:30.383Z,23.22
2023-02-27T08:20:09.146Z,23.21
2023-02-27T08:20:46.949Z,23.24
2023-02-27T08:21:25.138Z,23.22
2023-02-27T08:22:03.591Z,23.22
2023-02-27T08:22:43.237Z,23.22
2023-02-27T08:23:22.606Z,23.22